Witter, Arkansas
Current Conditions -  °F | °C
As of 3:53 PM on Friday 31 Oct 2014 (Local Time) from KFYV Reporting Station
Clear Clear  
Wind Chill: 51°   Ceiling: Unl
Heat Index: 51°   Visibility: 10mi
Dew Point: 29°   Wind: 15mph
Humidity: 43%   Direction: 350°N
Pressure: 30.32"   Gusts: 21mph
Location:  35.94°N, 93.68°W
Report Text: KFYV 312053Z 35013G18KT 10SM CLR 11/M02 A3032 RMK AO2 SLP269 T01061017 55008
Loading
Personal Weather Stations






























Interactive Weather Map
Tropical Storm Tracking
New forecast layout! Learn more

10-Day Weather Forecast

Advertisements
Track Severe Weather on mobile